Time;durP1;ratioP1;P1;durP2;ratioP2;P2;SDS_P1;SDS_P2;PMS_P1;PMS_P2;Temp;Humidity;BMP_temperature;BMP_pressure;BME280_temperature;BME280_humidity;BME280_pressure;Samples;Min_cycle;Max_cycle;Signal;HPM_P1;HPM_P2
2020/12/14 00:01:48;;;;;;;11.60;2.97;;;12.40;99.90;;;11.57;100.00;99985.06;4185966;28;20029;-67
2020/12/14 00:03:49;;;;;;;11.18;2.33;;;12.40;99.90;;;11.59;100.00;99993.63;4184602;28;20514;-67
2020/12/14 00:05:50;;;;;;;10.98;1.60;;;12.40;99.90;;;11.57;100.00;99985.06;4186060;28;20037;-67
2020/12/14 00:07:51;;;;;;;8.55;1.75;;;12.40;99.90;;;11.49;100.00;99979.88;4184531;28;20094;-67
2020/12/14 00:09:51;;;;;;;5.40;2.08;;;12.30;99.90;;;11.49;100.00;99987.81;4185709;28;20025;-67
2020/12/14 00:11:52;;;;;;;3.50;1.50;;;12.30;99.90;;;11.41;100.00;99998.47;4185905;28;20025;-67
2020/12/14 00:13:53;;;;;;;10.45;2.35;;;12.30;99.90;;;11.32;100.00;99986.31;4184576;28;20026;-67
2020/12/14 00:15:54;;;;;;;6.10;1.88;;;12.20;99.90;;;11.32;100.00;99986.31;4185633;28;20036;-67
2020/12/14 00:17:55;;;;;;;7.53;1.95;;;12.20;99.90;;;11.33;100.00;99980.03;4185876;28;20021;-67
2020/12/14 00:19:56;;;;;;;4.43;1.40;;;12.20;99.90;;;11.38;100.00;99978.47;4185807;28;20037;-67
2020/12/14 00:21:56;;;;;;;7.38;1.63;;;12.20;99.90;;;11.32;100.00;99971.28;4185902;28;20361;-67
2020/12/14 00:23:57;;;;;;;6.60;2.05;;;12.10;99.90;;;11.33;100.00;99977.38;4198931;28;20051;-67
2020/12/14 00:25:58;;;;;;;8.93;1.65;;;12.10;99.90;;;11.31;100.00;99974.13;4185785;28;20025;-67
2020/12/14 00:27:59;;;;;;;5.57;1.50;;;12.10;99.90;;;11.32;100.00;99981.03;4185550;28;20029;-67
2020/12/14 00:30:00;;;;;;;6.78;1.38;;;12.10;99.90;;;11.24;100.00;99958.16;4185632;28;20067;-67
2020/12/14 00:32:01;;;;;;;10.40;1.67;;;12.10;99.90;;;11.18;100.00;99985.28;4185458;28;20036;-67
2020/12/14 00:34:02;;;;;;;6.07;1.70;;;12.00;99.90;;;11.16;100.00;99982.00;4185830;28;20029;-67
2020/12/14 00:36:03;;;;;;;5.07;1.40;;;12.00;99.90;;;11.20;100.00;99985.09;4167711;28;20029;-67
2020/12/14 00:38:03;;;;;;;6.20;1.75;;;12.00;99.90;;;11.10;100.00;99978.25;4185547;28;20032;-67
2020/12/14 00:40:04;;;;;;;10.18;1.88;;;12.00;99.90;;;11.19;100.00;99972.91;4185103;28;20033;-67
2020/12/14 00:42:05;;;;;;;8.93;2.50;;;12.00;99.90;;;11.06;100.00;99969.03;4185162;28;20040;-67
2020/12/14 00:44:06;;;;;;;9.05;1.70;;;11.90;99.90;;;11.13;100.00;99963.88;4184221;28;20104;-67
2020/12/14 00:46:15;;;;;;;12.25;1.83;;;11.90;99.90;;;11.13;100.00;99955.97;4184308;28;20025;-67
2020/12/14 00:48:16;;;;;;;10.20;2.13;;;11.90;99.90;;;11.16;100.00;99970.63;4184135;28;20025;-67
2020/12/14 00:50:17;;;;;;;6.85;1.60;;;11.90;99.90;;;11.04;100.00;99968.41;4185518;28;20028;-67
2020/12/14 00:52:17;;;;;;;8.27;1.85;;;11.90;99.90;;;11.07;100.00;99962.78;4167535;28;20064;-67
2020/12/14 00:54:18;;;;;;;8.02;1.90;;;11.90;99.90;;;11.01;100.00;99973.22;4183888;28;20578;-67
2020/12/14 00:56:19;;;;;;;6.40;1.65;;;11.90;99.90;;;11.02;100.00;99967.75;4185245;28;20090;-67
2020/12/14 00:58:20;;;;;;;5.90;1.50;;;11.80;99.90;;;11.05;100.00;99961.31;4184255;28;20516;-67
2020/12/14 01:00:21;;;;;;;7.57;1.88;;;11.80;99.90;;;11.04;100.00;99973.69;4185357;28;20028;-67
2020/12/14 01:02:22;;;;;;;11.38;2.60;;;11.80;99.90;;;10.93;100.00;99965.38;4183854;28;20119;-67
2020/12/14 01:04:23;;;;;;;5.10;1.77;;;11.70;99.90;;;10.96;100.00;99968.47;4183818;28;20060;-67
2020/12/14 01:06:24;;;;;;;6.22;1.98;;;11.70;99.90;;;10.96;100.00;99970.31;4185341;28;20055;-67
2020/12/14 01:08:25;;;;;;;11.57;2.97;;;11.70;99.90;;;11.02;100.00;99973.03;4185264;28;20510;-67
2020/12/14 01:10:26;;;;;;;7.97;2.00;;;11.70;99.90;;;11.04;100.00;99965.78;4183763;28;20029;-67
2020/12/14 01:12:27;;;;;;;11.40;2.58;;;11.70;99.90;;;11.00;100.00;99968.94;4184748;28;20507;-67
2020/12/14 01:14:28;;;;;;;12.77;2.05;;;11.70;99.90;;;11.01;100.00;99962.66;4185249;28;20025;-67
2020/12/14 01:16:29;;;;;;;11.25;2.58;;;11.70;99.90;;;10.99;100.00;99964.66;4183936;28;20159;-67
2020/12/14 01:18:30;;;;;;;9.75;2.58;;;11.70;99.90;;;10.96;100.00;99959.75;4183994;28;20075;-67
2020/12/14 01:20:30;;;;;;;9.57;2.22;;;11.60;99.90;;;10.84;100.00;99961.94;4185136;28;20037;-67
2020/12/14 01:22:32;;;;;;;13.15;3.03;;;11.60;99.90;;;10.77;100.00;99962.84;4183785;28;20075;-67
2020/12/14 01:24:33;;;;;;;12.60;2.35;;;11.50;99.90;;;10.78;100.00;99962.66;4183710;28;20025;-67
2020/12/14 01:26:33;;;;;;;12.48;1.98;;;11.50;99.90;;;10.83;100.00;99970.06;4183851;28;20025;-67
2020/12/14 01:28:34;;;;;;;11.73;2.25;;;11.50;99.90;;;10.82;100.00;99969.22;4184945;28;20082;-67
2020/12/14 01:30:35;;;;;;;12.45;2.78;;;11.40;99.90;;;10.79;100.00;99966.94;4185049;28;20021;-67
2020/12/14 01:32:36;;;;;;;7.22;2.10;;;11.40;99.90;;;10.76;100.00;99966.47;4183872;28;20496;-67
2020/12/14 01:34:37;;;;;;;11.23;3.50;;;11.40;99.90;;;10.67;100.00;99965.72;4185004;28;20036;-67
2020/12/14 01:36:38;;;;;;;8.93;2.15;;;11.30;99.90;;;10.68;100.00;99959.44;4183625;28;20026;-67
2020/12/14 01:38:38;;;;;;;14.55;2.80;;;11.30;99.90;;;10.78;100.00;99967.94;4184768;28;20079;-67
2020/12/14 01:40:40;;;;;;;10.25;2.88;;;11.30;99.90;;;10.71;100.00;99960.91;4184304;28;20049;-67
2020/12/14 01:42:44;;;;;;;12.43;2.70;;;11.30;99.90;;;10.69;100.00;99953.19;4183641;28;20408;-67
2020/12/14 01:44:45;;;;;;;15.40;2.55;;;11.30;99.90;;;10.55;100.00;99951.28;4183662;28;20029;-67
2020/12/14 01:46:46;;;;;;;24.33;2.70;;;11.30;99.90;;;10.62;100.00;99962.78;4183515;28;20029;-67
2020/12/14 01:48:47;;;;;;;14.45;2.42;;;11.20;99.90;;;10.58;100.00;99953.56;4184966;28;20028;-67
2020/12/14 01:50:48;;;;;;;12.50;3.13;;;11.10;99.90;;;10.64;100.00;99962.59;4183683;28;20033;-67
2020/12/14 01:52:49;;;;;;;15.85;3.80;;;11.20;99.90;;;10.57;100.00;99958.03;4184800;28;20060;-67
2020/12/14 01:54:52;;;;;;;14.65;3.55;;;11.20;99.90;;;10.62;100.00;99964.59;4184309;28;20025;-67
2020/12/14 01:56:54;;;;;;;15.25;3.30;;;11.20;99.90;;;10.60;100.00;99971.88;4183659;28;20025;-67
2020/12/14 01:58:55;;;;;;;14.50;2.33;;;11.10;99.90;;;10.59;100.00;99957.03;4167050;28;20029;-67
2020/12/14 02:00:56;;;;;;;15.52;3.47;;;11.10;99.90;;;10.55;100.00;99967.09;4184626;28;20021;-67
2020/12/14 02:02:57;;;;;;;12.95;2.25;;;11.20;99.90;;;10.57;100.00;99962.50;4184497;28;20056;-67
2020/12/14 02:04:58;;;;;;;14.00;2.50;;;11.20;99.90;;;10.57;100.00;99957.22;4183654;28;20092;-67
2020/12/14 02:06:59;;;;;;;15.80;3.05;;;11.10;99.90;;;10.50;100.00;99980.00;4166864;28;20092;-67
2020/12/14 02:09:00;;;;;;;12.15;2.22;;;11.20;99.90;;;10.54;100.00;99976.84;4184332;28;20025;-67
2020/12/14 02:11:01;;;;;;;16.35;3.42;;;11.10;99.90;;;10.55;100.00;99982.94;4183359;28;20064;-67
2020/12/14 02:13:02;;;;;;;19.13;3.25;;;11.10;99.90;;;10.49;100.00;99976.53;4183611;28;20056;-67
2020/12/14 02:15:04;;;;;;;14.07;2.50;;;11.10;99.90;;;10.60;100.00;99988.53;4183445;28;20021;-67
2020/12/14 02:17:05;;;;;;;12.05;2.67;;;11.10;99.90;;;10.56;100.00;99992.50;4184637;28;20028;-67
2020/12/14 02:19:06;;;;;;;17.15;3.03;;;11.10;99.90;;;10.57;100.00;99973.06;4184617;28;20036;-67
2020/12/14 02:21:06;;;;;;;16.95;3.60;;;11.10;99.90;;;10.38;100.00;99976.94;4184664;28;20029;-67
2020/12/14 02:23:07;;;;;;;22.98;3.22;;;11.10;99.90;;;10.53;100.00;99982.28;4183879;28;20120;-67
2020/12/14 02:25:08;;;;;;;16.92;3.78;;;11.10;99.90;;;10.48;100.00;99969.63;4187610;28;20029;-67
2020/12/14 02:27:09;;;;;;;22.90;5.03;;;11.10;99.90;;;10.58;100.00;99977.31;4187707;28;20036;-67
2020/12/14 02:29:10;;;;;;;24.92;4.22;;;11.10;99.90;;;10.59;100.00;99967.59;4190964;28;20055;-67
2020/12/14 02:31:11;;;;;;;12.98;2.95;;;11.10;99.90;;;10.51;100.00;99973.75;4187822;28;20538;-67
2020/12/14 02:33:12;;;;;;;17.20;3.85;;;11.10;99.90;;;10.56;100.00;99971.41;4186610;28;20532;-67
2020/12/14 02:35:13;;;;;;;20.30;3.80;;;11.20;99.90;;;10.63;100.00;99980.28;4187653;28;20037;-67
2020/12/14 02:37:18;;;;;;;16.98;3.58;;;11.20;99.90;;;10.60;100.00;99975.34;4190997;28;20016;-67
2020/12/14 02:39:19;;;;;;;20.75;3.60;;;11.30;99.90;;;10.72;100.00;99979.19;4186250;28;20043;-68
2020/12/14 02:41:20;;;;;;;21.80;4.13;;;11.30;99.90;;;10.77;100.00;99974.22;4187332;28;20049;-67
2020/12/14 02:43:21;;;;;;;16.52;3.50;;;11.40;99.90;;;10.81;100.00;99980.78;4186313;28;20104;-67
2020/12/14 02:45:22;;;;;;;18.45;3.13;;;11.40;99.90;;;10.78;100.00;99982.97;4186365;28;20021;-67
2020/12/14 02:47:23;;;;;;;20.38;2.95;;;11.40;99.90;;;10.83;100.00;99981.44;4186312;28;20575;-67
2020/12/14 02:49:23;;;;;;;21.77;4.40;;;11.50;99.90;;;10.74;100.00;99971.94;4187474;28;20048;-67
2020/12/14 02:51:24;;;;;;;27.75;4.65;;;11.50;99.90;;;10.70;100.00;99968.00;4187291;28;20028;-67
2020/12/14 02:53:25;;;;;;;24.77;4.25;;;11.40;99.90;;;10.80;100.00;99971.25;4186208;28;20449;-67
2020/12/14 02:55:26;;;;;;;31.77;5.10;;;11.40;99.90;;;10.86;100.00;99977.63;4195446;28;20032;-67
2020/12/14 02:57:28;;;;;;;25.17;3.33;;;11.40;99.90;;;10.93;100.00;99983.84;4186195;28;20033;-67
2020/12/14 02:59:29;;;;;;;22.20;3.85;;;11.40;99.90;;;10.90;100.00;99971.81;4187081;28;20036;-67
2020/12/14 03:01:30;;;;;;;25.58;4.72;;;11.50;99.90;;;11.00;100.00;99988.22;4186039;28;20116;-67
2020/12/14 03:03:31;;;;;;;23.52;3.72;;;11.50;99.90;;;10.92;100.00;99977.75;4187056;28;20021;-67
2020/12/14 03:05:31;;;;;;;16.60;3.78;;;11.50;99.90;;;10.88;100.00;99979.09;4186013;28;20029;-67
2020/12/14 03:07:32;;;;;;;28.10;5.03;;;11.50;99.90;;;10.85;100.00;99968.88;4186992;28;20025;-67
2020/12/14 03:09:33;;;;;;;20.27;4.40;;;11.50;99.90;;;10.94;100.00;99972.28;4186926;28;20378;-67
2020/12/14 03:11:34;;;;;;;25.05;4.72;;;11.60;99.90;;;11.00;100.00;99969.75;4185962;28;20032;-67
2020/12/14 03:13:35;;;;;;;17.90;4.95;;;11.60;99.90;;;11.11;100.00;99979.06;4185839;28;20564;-67
2020/12/14 03:15:39;;;;;;;24.20;4.38;;;11.70;99.90;;;11.19;100.00;99972.91;4185756;28;20472;-67
2020/12/14 03:17:40;;;;;;;27.95;4.82;;;11.70;99.90;;;11.16;100.00;99983.81;4187091;28;20033;-67
2020/12/14 03:19:41;;;;;;;24.90;5.13;;;11.80;99.90;;;11.20;100.00;99974.56;4185795;28;20017;-67
2020/12/14 03:21:42;;;;;;;23.73;4.53;;;11.90;99.90;;;11.22;100.00;99964.63;4186926;28;20022;-67
2020/12/14 03:23:43;;;;;;;27.27;5.25;;;11.90;99.90;;;11.28;100.00;99982.38;4185678;28;20029;-67
2020/12/14 03:25:44;;;;;;;29.40;5.32;;;11.90;99.90;;;11.23;100.00;99967.06;4186616;28;20036;-67
2020/12/14 03:27:45;;;;;;;22.35;3.72;;;11.90;99.90;;;11.39;100.00;99976.66;4186921;28;20021;-67
2020/12/14 03:29:46;;;;;;;29.27;5.78;;;12.00;99.90;;;11.32;100.00;99966.00;4185660;28;20033;-67
2020/12/14 03:31:47;;;;;;;30.75;5.05;;;12.00;99.90;;;11.38;100.00;99975.03;4185581;28;20092;-67
2020/12/14 03:33:50;;;;;;;26.77;4.57;;;12.10;99.90;;;11.45;100.00;99968.84;4185392;28;20040;-67
2020/12/14 03:35:50;;;;;;;24.83;4.55;;;12.10;99.90;;;11.41;100.00;99966.75;4186700;28;20025;-67
2020/12/14 03:37:51;;;;;;;31.08;4.95;;;12.20;99.90;;;11.39;100.00;99966.09;4186673;28;20040;-67
2020/12/14 03:39:52;;;;;;;28.73;4.57;;;12.10;99.90;;;11.41;100.00;99958.84;4168549;28;20025;-67
2020/12/14 03:41:53;;;;;;;24.25;4.88;;;12.20;99.90;;;11.45;100.00;99965.38;4186314;28;20098;-67
2020/12/14 03:43:54;;;;;;;26.42;3.88;;;12.20;99.90;;;11.47;100.00;99964.19;4186614;28;20104;-67
2020/12/14 03:45:55;;;;;;;29.77;5.60;;;12.20;99.90;;;11.51;100.00;99970.78;4186617;28;20021;-67
2020/12/14 03:47:55;;;;;;;31.80;6.22;;;12.20;99.90;;;11.54;100.00;99978.34;4185362;28;20482;-67
2020/12/14 03:49:57;;;;;;;19.02;3.97;;;12.20;99.90;;;11.56;100.00;99975.50;4185135;28;20031;-67
2020/12/14 03:51:58;;;;;;;29.98;5.13;;;12.20;99.90;;;11.52;100.00;99979.53;4185292;28;20056;-67
2020/12/14 03:53:59;;;;;;;24.58;4.75;;;12.20;99.90;;;11.53;100.00;99984.59;4184950;28;20025;-67
2020/12/14 03:56:00;;;;;;;26.90;4.65;;;12.10;99.90;;;11.49;100.00;99983.34;4186438;28;20029;-67
2020/12/14 03:58:01;;;;;;;24.05;4.18;;;12.10;99.90;;;11.43;100.00;99977.97;4186323;28;20029;-67
2020/12/14 04:00:04;;;;;;;29.25;4.68;;;12.10;99.90;;;11.41;100.00;99990.53;4186447;28;20029;-67
2020/12/14 04:02:05;;;;;;;24.15;4.13;;;12.10;99.90;;;11.37;100.00;99973.41;4185016;28;20033;-67
2020/12/14 04:04:06;;;;;;;19.98;4.60;;;12.10;99.90;;;11.39;100.00;99982.78;4186143;28;20025;-67
2020/12/14 04:06:07;;;;;;;18.40;3.58;;;12.10;99.90;;;11.38;99.68;99983.75;4184979;28;20033;-67
2020/12/14 04:08:07;;;;;;;21.08;3.47;;;12.00;99.90;;;11.32;97.53;99981.84;4185182;28;20013;-67
2020/12/14 04:10:08;;;;;;;13.73;3.13;;;11.90;99.90;;;11.37;96.23;99981.31;4185848;28;20064;-67
2020/12/14 04:12:09;;;;;;;18.35;2.63;;;11.90;99.90;;;11.33;95.69;99978.22;4184925;28;20040;-67
2020/12/14 04:14:10;;;;;;;12.57;2.67;;;11.90;99.90;;;11.34;94.90;99973.75;4184798;28;20025;-67
2020/12/14 04:16:11;;;;;;;17.45;2.65;;;11.90;99.90;;;11.26;94.99;99985.19;4186105;28;20025;-67
2020/12/14 04:18:12;;;;;;;10.85;1.95;;;11.80;99.90;;;11.31;94.44;99993.41;4184933;28;20025;-67
2020/12/14 04:20:13;;;;;;;13.65;2.85;;;11.80;99.90;;;11.16;95.53;99992.56;4186244;28;20022;-67
2020/12/14 04:22:14;;;;;;;16.35;3.70;;;11.80;99.90;;;11.15;95.72;99992.72;4185785;28;20040;-67
2020/12/14 04:24:16;;;;;;;21.90;3.95;;;11.70;99.90;;;11.14;96.12;99993.75;4184670;28;20029;-67
2020/12/14 04:26:17;;;;;;;11.68;2.65;;;11.80;99.90;;;11.17;97.02;99991.53;4184860;28;20056;-67
2020/12/14 04:28:17;;;;;;;17.08;3.38;;;11.70;99.90;;;11.10;97.72;99988.81;4184666;28;20017;-67
2020/12/14 04:30:18;;;;;;;14.80;3.35;;;11.70;99.90;;;11.07;98.28;99994.44;4185867;28;20060;-67
2020/12/14 04:32:19;;;;;;;12.88;3.00;;;11.70;99.90;;;11.15;98.62;99998.00;4184749;28;20032;-67
2020/12/14 04:34:20;;;;;;;22.52;4.60;;;11.70;99.90;;;11.17;99.22;99999.47;4185915;28;20029;-67
2020/12/14 04:36:21;;;;;;;18.52;4.95;;;11.70;99.90;;;11.19;99.12;99996.66;4185810;28;20029;-67
2020/12/14 04:38:22;;;;;;;23.30;4.10;;;11.70;99.90;;;11.15;99.07;99984.81;4185787;28;20025;-67
2020/12/14 04:40:28;;;;;;;18.63;4.00;;;11.70;99.90;;;11.08;99.83;99988.16;4185450;28;20040;-67
2020/12/14 04:42:30;;;;;;;13.68;2.75;;;11.60;99.90;;;11.11;99.57;99989.59;4184315;28;20059;-67
2020/12/14 04:44:31;;;;;;;14.85;3.38;;;11.60;99.90;;;11.15;99.45;99990.91;4184556;28;20028;-67
2020/12/14 04:46:34;;;;;;;19.98;4.47;;;11.60;99.90;;;11.09;100.00;100000.38;4197034;28;20036;-67
2020/12/14 04:48:35;;;;;;;22.42;5.15;;;11.60;99.90;;;11.05;100.00;99996.41;4184546;28;20497;-67
2020/12/14 04:50:39;;;;;;;18.60;3.63;;;11.50;99.90;;;10.93;100.00;99991.75;4201077;28;20028;-67
2020/12/14 04:52:41;;;;;;;27.35;5.35;;;11.40;99.90;;;10.86;100.00;100001.38;4200576;28;20103;-67
2020/12/14 04:54:48;;;;;;;24.40;3.70;;;11.40;99.90;;;10.65;100.00;99993.25;4183962;28;20039;-67
2020/12/14 04:56:54;;;;;;;23.77;4.72;;;11.30;99.90;;;10.78;100.00;99988.25;4185619;28;20025;-67
2020/12/14 04:58:57;;;;;;;31.15;5.75;;;11.30;99.90;;;10.85;100.00;99994.44;4184310;28;20078;-67
2020/12/14 05:00:58;;;;;;;31.95;5.10;;;11.30;99.90;;;11.01;100.00;99995.16;4183939;28;20029;-67
2020/12/14 05:02:58;;;;;;;29.55;4.78;;;11.40;99.90;;;10.96;100.00;99994.84;4183976;28;20028;-67
2020/12/14 05:04:59;;;;;;;36.20;5.63;;;11.40;99.90;;;10.94;100.00;99988.94;4185293;28;20104;-67
2020/12/14 05:07:00;;;;;;;23.75;5.18;;;11.40;99.90;;;10.97;100.00;100003.59;4184152;28;20052;-67
2020/12/14 05:09:19;;;;;;;31.63;5.05;;;11.40;99.90;;;11.00;100.00;99990.88;4183649;28;20033;-67
2020/12/14 05:11:34;;;;;;;22.27;4.05;;;11.40;99.90;;;10.89;100.00;99991.28;4185449;28;20033;-67
2020/12/14 05:13:35;;;;;;;24.63;5.10;;;11.40;99.90;;;10.97;100.00;99982.47;4184230;28;20099;-67
2020/12/14 05:15:40;;;;;;;37.38;5.95;;;11.40;99.90;;;10.83;100.00;99985.88;4184051;28;20053;-67
2020/12/14 05:17:41;;;;;;;25.85;4.88;;;11.40;99.90;;;10.90;100.00;99994.75;4184150;28;20064;-67
2020/12/14 05:19:41;;;;;;;42.85;6.43;;;11.40;99.90;;;10.93;100.00;99991.75;4167395;28;20025;-67
2020/12/14 05:21:59;;;;;;;28.05;5.57;;;11.40;99.90;;;10.93;100.00;99989.91;4185111;28;20028;-67
2020/12/14 05:24:01;;;;;;;27.38;5.10;;;11.40;99.90;;;10.84;100.00;99988.34;4183619;28;20557;-67
2020/12/14 05:26:08;;;;;;;39.90;6.90;;;11.40;99.90;;;10.82;100.00;99997.44;4183571;28;20028;-67
2020/12/14 05:28:16;;;;;;;34.30;6.38;;;11.40;99.90;;;11.04;100.00;99997.44;4185115;28;20400;-67
2020/12/14 05:30:17;;;;;;;32.72;6.13;;;11.50;99.90;;;11.11;100.00;100002.81;4183840;28;20025;-68
2020/12/14 05:32:18;;;;;;;31.63;5.47;;;11.60;99.90;;;11.06;100.00;99998.06;4185095;28;20080;-68
2020/12/14 05:34:19;;;;;;;30.27;6.60;;;11.70;99.90;;;11.19;100.00;100002.75;4185128;28;20103;-67
2020/12/14 05:36:20;;;;;;;31.83;6.05;;;11.70;99.90;;;11.33;100.00;99993.22;4185132;28;20044;-67
2020/12/14 05:38:32;;;;;;;30.13;6.95;;;11.80;99.90;;;11.34;100.00;100005.44;4183741;28;20029;-67
2020/12/14 05:40:33;;;;;;;33.58;5.28;;;11.90;99.90;;;11.29;100.00;100010.44;4183381;28;20036;-70
2020/12/14 05:42:41;;;;;;;33.78;5.95;;;11.90;99.90;;;11.33;100.00;100012.53;4183740;28;20029;-67
2020/12/14 05:44:49;;;;;;;33.65;5.40;;;11.90;99.90;;;11.31;100.00;100011.06;4184983;28;20025;-67
2020/12/14 05:46:49;;;;;;;25.45;4.90;;;12.00;99.90;;;11.40;100.00;100023.22;4183830;28;20056;-67
2020/12/14 05:48:50;;;;;;;39.80;7.47;;;12.00;99.90;;;11.47;100.00;100011.72;4183821;28;20377;-67
2020/12/14 05:51:00;;;;;;;39.58;6.82;;;12.10;99.90;;;11.45;100.00;100010.28;4184879;28;20017;-67
2020/12/14 05:53:08;;;;;;;30.67;7.15;;;12.10;99.90;;;11.55;100.00;100016.97;4183390;28;20508;-67
2020/12/14 05:55:09;;;;;;;33.22;6.53;;;12.10;99.90;;;11.47;100.00;100017.03;4183587;28;20056;-67
2020/12/14 05:57:11;;;;;;;34.25;7.45;;;12.10;99.90;;;11.51;100.00;100034.16;4183315;28;20032;-67
2020/12/14 05:59:18;;;;;;;30.65;7.32;;;12.20;99.90;;;11.46;100.00;100033.88;4186700;28;20025;-67
2020/12/14 06:01:21;;;;;;;35.88;6.18;;;12.10;99.90;;;11.47;100.00;100038.16;4186572;28;20066;-67
2020/12/14 06:03:26;;;;;;;34.17;7.53;;;12.10;99.90;;;11.51;100.00;100033.34;4186658;28;20081;-67
2020/12/14 06:05:28;;;;;;;38.40;7.07;;;12.10;99.90;;;11.46;100.00;100033.88;4186788;28;20055;-67
2020/12/14 06:07:31;;;;;;;34.15;7.15;;;12.10;99.90;;;11.44;100.00;100035.06;4186589;28;20471;-67
2020/12/14 06:09:37;;;;;;;46.17;7.10;;;12.10;99.90;;;11.39;100.00;100035.59;4173487;28;20017;-67
2020/12/14 06:11:38;;;;;;;38.03;8.48;;;12.10;99.90;;;11.50;100.00;100032.50;4186951;28;20117;-67
2020/12/14 06:13:58;;;;;;;43.30;6.85;;;12.10;99.90;;;11.42;100.00;100031.75;4170200;28;20029;-67
2020/12/14 06:16:00;;;;;;;36.92;6.35;;;12.00;99.90;;;11.20;100.00;100027.34;4186634;28;20036;-67
2020/12/14 06:18:03;;;;;;;36.13;6.55;;;11.90;99.90;;;11.21;100.00;100032.44;4185221;28;20052;-67
2020/12/14 06:20:11;;;;;;;34.08;6.28;;;11.80;99.90;;;11.31;100.00;100040.13;4186725;28;20082;-68
2020/12/14 06:22:13;;;;;;;36.97;7.43;;;11.80;99.90;;;11.18;100.00;100031.97;4186371;28;20495;-67
2020/12/14 06:24:25;;;;;;;35.08;7.13;;;11.80;99.90;;;11.13;100.00;100040.44;4169748;28;20107;-67
2020/12/14 06:26:26;;;;;;;39.53;6.82;;;11.80;99.90;;;11.20;100.00;100046.63;4186558;28;20049;-68
2020/12/14 06:28:32;;;;;;;39.67;7.47;;;11.80;99.90;;;11.18;100.00;100042.53;4186499;28;20492;-67
2020/12/14 06:30:34;;;;;;;46.33;8.57;;;11.70;99.90;;;11.26;100.00;100039.84;4186227;28;20063;-67
2020/12/14 06:32:40;;;;;;;50.92;8.55;;;11.80;99.90;;;11.26;100.00;100034.56;4186644;28;20033;-67
2020/12/14 06:34:42;;;;;;;34.60;6.78;;;11.80;99.90;;;11.26;100.00;100035.34;4182355;28;20130;-67
2020/12/14 06:36:43;;;;;;;40.58;8.10;;;11.80;99.90;;;11.31;100.00;100035.66;4184789;28;20037;-67
2020/12/14 06:38:45;;;;;;;46.97;7.20;;;11.80;99.90;;;11.14;100.00;100034.13;4185299;28;20040;-66
2020/12/14 06:40:58;;;;;;;34.28;5.40;;;11.70;99.90;;;11.22;100.00;100046.47;4182274;28;20111;-67
2020/12/14 06:42:59;;;;;;;37.88;7.03;;;11.70;99.90;;;11.15;100.00;100040.22;4169061;28;20037;-67
2020/12/14 06:45:08;;;;;;;40.13;5.55;;;11.70;99.90;;;11.11;100.00;100045.03;4187148;28;20029;-67
2020/12/14 06:47:18;;;;;;;38.67;6.00;;;11.60;99.90;;;11.15;100.00;100048.16;4186025;28;20033;-67
2020/12/14 06:49:31;;;;;;;37.05;7.60;;;11.60;99.90;;;11.19;100.00;100050.28;4163331;28;20022;-67
2020/12/14 06:51:52;;;;;;;40.22;7.55;;;11.60;99.90;;;11.09;100.00;100042.59;4170658;28;20097;-67
2020/12/14 06:53:54;;;;;;;34.55;7.78;;;11.60;99.90;;;11.13;100.00;100048.34;4175483;28;20040;-67
2020/12/14 06:55:55;;;;;;;30.40;6.20;;;11.60;99.90;;;11.03;100.00;100050.38;4176772;28;20047;-67
2020/12/14 06:57:56;;;;;;;39.70;7.43;;;11.50;99.90;;;11.08;100.00;100058.59;4176268;28;20060;-67
2020/12/14 06:59:57;;;;;;;30.73;6.55;;;11.50;99.90;;;11.08;100.00;100053.31;4176702;28;20047;-67
2020/12/14 07:02:11;;;;;;;38.13;6.90;;;11.50;99.90;;;11.02;100.00;100054.84;4177283;28;20094;-67
2020/12/14 07:04:15;;;;;;;33.80;7.20;;;11.50;99.90;;;10.99;100.00;100055.19;4160022;28;20592;-67
2020/12/14 07:06:26;;;;;;;40.05;7.35;;;11.40;99.90;;;10.89;100.00;100044.06;4177560;28;20048;-67
2020/12/14 07:08:42;;;;;;;35.58;7.30;;;11.40;99.90;;;10.95;100.00;100042.53;4176305;28;20594;-67
2020/12/14 07:10:43;;;;;;;33.67;6.72;;;11.40;99.90;;;11.05;100.00;100051.06;4146345;28;20101;-67
2020/12/14 07:12:46;;;;;;;40.88;6.35;;;11.40;99.90;;;10.94;100.00;100035.59;4176166;28;20120;-67
2020/12/14 07:14:54;;;;;;;30.42;6.50;;;11.40;99.90;;;10.90;100.00;100037.75;4127622;28;20493;-67
2020/12/14 07:16:57;;;;;;;44.70;7.97;;;11.30;99.90;;;10.76;100.00;100033.25;4175196;28;20120;-67
2020/12/14 07:18:58;;;;;;;28.48;5.13;;;11.30;99.90;;;10.76;100.00;100038.53;4176843;28;20025;-67
2020/12/14 07:21:06;;;;;;;31.88;5.88;;;11.30;99.90;;;10.67;100.00;100039.56;4175336;28;20136;-67
2020/12/14 07:23:09;;;;;;;34.72;6.03;;;11.20;99.90;;;10.63;100.00;100043.56;4177776;28;20546;-69
2020/12/14 07:25:23;;;;;;;31.15;6.88;;;11.20;99.90;;;10.65;100.00;100038.94;4159489;28;20038;-69
2020/12/14 07:27:28;;;;;;;27.80;6.13;;;11.20;99.90;;;10.63;100.00;100038.28;4176920;28;20013;-68
2020/12/14 07:29:29;;;;;;;28.73;6.25;;;11.20;99.90;;;10.67;100.00;100039.56;4176142;28;20037;-67
2020/12/14 07:31:30;;;;;;;39.65;7.22;;;11.20;99.90;;;10.74;100.00;100039.69;4177955;28;20033;-67
2020/12/14 07:33:31;;;;;;;38.38;7.72;;;11.10;99.90;;;10.78;100.00;100047.06;4176289;28;20373;-67
2020/12/14 07:35:32;;;;;;;33.47;7.72;;;11.20;99.90;;;10.91;100.00;100049.97;4176441;28;20044;-67
2020/12/14 07:37:35;;;;;;;36.20;6.78;;;11.30;99.90;;;10.82;100.00;100045.75;4177926;28;21372;-67
2020/12/14 07:39:47;;;;;;;31.55;6.05;;;11.30;99.90;;;10.82;100.00;100063.38;4175904;28;20029;-67
2020/12/14 07:41:48;;;;;;;36.10;7.63;;;11.30;99.90;;;10.85;100.00;100063.88;4175813;28;20057;-67
2020/12/14 07:43:55;;;;;;;40.17;8.70;;;11.30;99.90;;;10.78;100.00;100055.00;4176476;28;20025;-67
2020/12/14 07:45:56;;;;;;;29.25;7.25;;;11.30;99.90;;;10.84;100.00;100059.56;4176516;28;20028;-68
2020/12/14 07:47:56;;;;;;;32.50;6.10;;;11.40;99.90;;;10.92;100.00;100056.91;4159653;28;20038;-67
2020/12/14 07:50:10;;;;;;;27.80;6.05;;;11.40;99.90;;;10.93;100.00;100055.09;4175905;28;20032;-68
2020/12/14 07:52:29;;;;;;;33.38;7.30;;;11.50;99.90;;;10.87;100.00;100048.66;4192133;28;20036;-67
2020/12/14 07:54:30;;;;;;;30.48;6.38;;;11.50;99.90;;;10.88;100.00;100052.97;4208469;28;20051;-67
2020/12/14 07:56:31;;;;;;;31.38;6.95;;;11.50;99.90;;;10.98;100.00;100037.72;4175945;28;20028;-67
2020/12/14 07:58:32;;;;;;;29.00;6.13;;;11.60;99.90;;;11.02;100.00;100048.75;4175975;28;20041;-67
2020/12/14 08:00:33;;;;;;;27.67;5.63;;;11.60;99.90;;;11.03;100.00;100056.50;4177263;28;20032;-67
2020/12/14 08:02:34;;;;;;;25.38;4.97;;;11.60;99.90;;;11.04;100.00;100049.41;4177127;28;20555;-67
2020/12/14 08:04:35;;;;;;;29.17;6.38;;;11.60;99.90;;;11.15;100.00;100058.72;4176341;28;20032;-67
2020/12/14 08:06:38;;;;;;;33.03;6.43;;;11.60;99.90;;;11.18;100.00;100053.91;4177446;28;20033;-67
2020/12/14 08:08:43;;;;;;;25.63;6.07;;;11.70;99.90;;;11.07;100.00;100049.88;4175498;28;20037;-67
2020/12/14 08:10:44;;;;;;;26.63;4.97;;;11.70;99.90;;;11.16;100.00;100058.56;4177247;28;20037;-67
2020/12/14 08:12:46;;;;;;;28.30;7.13;;;11.70;99.90;;;11.07;100.00;100055.16;4175525;28;20109;-67
2020/12/14 08:14:48;;;;;;;33.70;5.72;;;11.70;99.90;;;11.10;100.00;100052.16;4175558;28;20535;-67
2020/12/14 08:16:49;;;;;;;33.35;8.00;;;11.70;99.90;;;11.13;100.00;100053.63;4158933;28;20029;-67
2020/12/14 08:18:55;;;;;;;35.03;5.57;;;11.70;99.90;;;11.09;100.00;100057.59;4159224;28;20588;-67
2020/12/14 08:20:56;;;;;;;28.00;7.28;;;11.70;99.90;;;11.09;100.00;100066.34;4190956;28;20029;-67
2020/12/14 08:22:59;;;;;;;30.85;6.35;;;11.60;99.90;;;11.11;100.00;100068.78;4191364;28;20524;-67
2020/12/14 08:25:00;;;;;;;31.13;6.57;;;11.60;99.90;;;11.12;100.00;100065.16;4176267;28;20056;-67